Flight Track Log - Related Links

Times and Time Zones

All times are in EST time to prevent confusion due to time zone crossing. See the FDX1347 flight status page for this flight to view local times or setup timezone preferences in your user account.

Time Position Orientation Groundspeed Altitude Reporting Facility
EST Latitude Longitude Course Direction KTS MPH feet Rate Location/Type
Fri 10:45:11 PM 42.8048 -73.8259 290° West 229 264 3,300  Level FlightAware ADS-B
Fri 10:46:12 PM 42.8005 -73.9173 266° West 247 284 6,400 3,246 Climbing FlightAware ADS-B
Fri 10:47:13 PM 42.7888 -74.0073 260° West 247 284 9,900 2,700 Climbing FlightAware ADS-B
Fri 10:48:12 PM 42.7751 -74.1132 260° West 300 345 11,800 2,250 Climbing FlightAware ADS-B
Fri 10:49:13 PM 42.7637 -74.2339 263° West 332 382 14,400 2,975 Climbing FlightAware ADS-B
Fri 10:50:13 PM 42.7549 -74.3601 265° West 340 391 17,800 3,200 Climbing FlightAware ADS-B
Fri 10:50:43 PM 42.7512 -74.4224 265° West 345 397 19,200 2,606 Climbing FlightAware ADS-B
Fri 10:53:08 PM 42.6795 -74.7243 252° West 359 413 25,400 2,330 Climbing FlightAware ADS-B
Fri 10:54:09 PM 42.6196 -74.8374 234° Southwest 370 426 27,200 1,790 Climbing FlightAware ADS-B
Fri 10:55:12 PM 42.5555 -74.9572 234° Southwest 378 435 29,100 2,323 Climbing FlightAware ADS-B
Fri 10:56:13 PM 42.4958 -75.0690 234° Southwest 357 411 32,000 1,983 Climbing FlightAware ADS-B
Fri 10:57:13 PM 42.4361 -75.1815 234° Southwest 373 429 33,100 1,050 Climbing FlightAware ADS-B
Fri 10:58:13 PM 42.3752 -75.2987 235° Southwest 390 449 34,100 1,160 Climbing FlightAware ADS-B
Fri 10:59:12 PM 42.3136 -75.4178 235° Southwest 395 455 35,400 1,613 Climbing FlightAware ADS-B
Fri 11:00:12 PM 42.2517 -75.5359 235° Southwest 382 440 37,300 1,393 Climbing FlightAware ADS-B
Fri 11:01:04 PM 42.2124 -75.6116 235° Southwest 390 449 38,000 718 Climbing FlightAware ADS-B
Fri 11:02:09 PM 42.1371 -75.7543 235° Southwest 388 447 38,700 640 Climbing FlightAware ADS-B
Fri 11:04:02 PM 42.1177 -75.7916 235° Southwest 396 456 39,900 424 Climbing FlightAware ADS-B
Fri 11:05:13 PM 41.9508 -76.1428 238° Southwest 402 463 40,000 28 Climbing FlightAware ADS-B
Fri 11:07:37 PM 41.8078 -76.4499 238° Southwest 403 464 40,000  Level FlightAware ADS-B (KWWD)
Fri 11:08:26 PM 41.7598 -76.5527 238° Southwest 403 464 40,000  Level FlightAware ADS-B (KWWD)
Fri 11:11:08 PM 41.6006 -76.8896 238° Southwest 398 458 40,000  Level FlightAware ADS-B (KWWD)
Fri 11:11:42 PM 41.5679 -76.9578 237° Southwest 396 456 40,000  Level FlightAware ADS-B (KWWD)
Fri 11:12:22 PM 41.5276 -77.0424 238° Southwest 396 456 40,000  Level FlightAware ADS-B (KWWD)
Fri 11:13:37 PM 41.4536 -77.1966 237° Southwest 396 456 40,000  Level FlightAware ADS-B (KWWD)
Fri 11:14:45 PM 41.3870 -77.3359 238° Southwest 395 455 40,000  Level FlightAware ADS-B (KWWD)
Fri 11:16:03 PM 41.3092 -77.4959 237° Southwest 394 453 40,000  Level FlightAware ADS-B (KWWD)
Fri 11:16:41 PM 41.2714 -77.5740 237° Southwest 394 453 40,000  Level FlightAware ADS-B (KWWD)
Fri 11:17:11 PM 41.2411 -77.6357 237° Southwest 394 453 40,000  Level FlightAware ADS-B (KWWD)
Fri 11:17:44 PM 41.2088 -77.7034 238° Southwest 395 455 40,000  Level FlightAware ADS-B (KWWD)
Fri 11:18:15 PM 41.1770 -77.7670 236° Southwest 395 455 40,000  Level FlightAware ADS-B (KWWD)
Fri 11:18:46 PM 41.1462 -77.8306 237° Southwest 394 453 40,000  Level FlightAware ADS-B (KWWD)
Fri 11:19:16 PM 41.1162 -77.8919 237° Southwest 394 453 40,000  Level FlightAware ADS-B (KWWD)
Fri 11:19:52 PM 41.0798 -77.9653 237° Southwest 394 453 40,000  Level FlightAware ADS-B (KWWD)
Fri 11:20:22 PM 41.0495 -78.0265 237° Southwest 394 453 40,000  Level FlightAware ADS-B (KWWD)
Fri 11:21:35 PM 40.9758 -78.1753 237° Southwest 394 453 40,000  Level FlightAware ADS-B (KWWD)
Fri 11:22:37 PM 40.9133 -78.3014 237° Southwest 394 453 40,000  Level FlightAware ADS-B (KWWD)
Fri 11:23:40 PM 40.8656 -78.4022 237° Southwest 398 458 40,000  Level Cleveland Center
Fri 11:24:41 PM 40.8006 -78.5292 236° Southwest 395 455 40,000  Level Cleveland Center
Fri 11:25:41 PM 40.7386 -78.6517 236° Southwest 398 458 40,000  Level Cleveland Center
Fri 11:26:42 PM 40.6767 -78.7744 236° Southwest 401 461 40,000  Level Cleveland Center
Fri 11:32:30 PM 40.3030 -79.5029 236° Southwest 401 461 40,000  Level FlightAware ADS-B
Fri 11:33:19 PM 40.2515 -79.6032 236° Southwest 401 461 40,000  Level FlightAware ADS-B
Fri 11:34:00 PM 40.2113 -79.6793 235° Southwest 400 460 40,000  Level FlightAware ADS-B
Fri 11:35:58 PM 40.0876 -79.9165 236° Southwest 399 459 40,000  Level FlightAware ADS-B
Fri 11:36:33 PM 40.0614 -79.9650 236° Southwest 400 460 40,000  Level Indianapolis Center
Fri 11:37:51 PM 39.9772 -80.1275 236° Southwest 399 459 40,000  Level Cleveland Center
Fri 11:38:52 PM 39.9153 -80.2464 236° Southwest 397 457 40,000  Level Cleveland Center
Fri 11:39:52 PM 39.8511 -80.3650 235° Southwest 398 458 40,000  Level Cleveland Center
Fri 11:40:53 PM 39.7883 -80.4842 236° Southwest 399 459 40,000  Level Cleveland Center
Fri 11:41:54 PM 39.7242 -80.6008 234° Southwest 396 456 40,000  Level Cleveland Center
Fri 11:42:39 PM 39.6697 -80.7022 235° Southwest 400 460 40,000  Level Indianapolis Center
Fri 11:43:40 PM 39.6069 -80.8197 235° Southwest 397 457 40,000  Level Indianapolis Center
Fri 11:44:41 PM 39.5422 -80.9369 234° Southwest 400 460 40,000  Level Indianapolis Center
Fri 11:45:41 PM 39.4775 -81.0556 235° Southwest 401 461 40,000  Level Indianapolis Center
Fri 11:51:16 PM 39.1037 -81.7389 235° Southwest 414 476 40,000  Level FlightAware ADS-B
Fri 11:52:11 PM 39.0438 -81.8468 234° Southwest 413 475 40,000  Level FlightAware ADS-B
Fri 11:53:27 PM 38.9587 -81.9982 234° Southwest 414 476 40,000  Level FlightAware ADS-B
Fri 11:54:24 PM 38.9124 -82.0819 235° Southwest 415 478 40,000  Level FlightAware ADS-B
Fri 11:55:24 PM 38.8268 -82.2338 234° Southwest 416 479 40,000  Level FlightAware ADS-B
Fri 11:56:18 PM 38.7657 -82.3418 234° Southwest 417 480 40,000  Level FlightAware ADS-B
Fri 11:56:56 PM 38.7275 -82.4080 233° Southwest 418 481 40,000  Level FlightAware ADS-B
Fri 11:57:42 PM 38.6800 -82.4919 234° Southwest 420 483 40,000  Level FlightAware ADS-B
Fri 11:58:40 PM 38.7112 -82.4379 54° Northeast 421 484 40,000  Level FlightAware ADS-B
Fri 11:59:55 PM 38.5182 -82.7758 234° Southwest 423 487 40,000  Level FlightAware ADS-B
Sat 12:00:26 AM 38.4814 -82.8403 234° Southwest 424 488 40,000  Level FlightAware ADS-B
Sat 12:00:59 AM 38.4429 -82.9068 234° Southwest 424 488 40,000  Level FlightAware ADS-B
Sat 12:01:29 AM 38.4080 -82.9673 234° Southwest 425 489 40,000  Level FlightAware ADS-B
Sat 12:02:06 AM 38.3652 -83.0419 234° Southwest 426 490 40,000  Level FlightAware ADS-B
Sat 12:02:37 AM 38.3289 -83.1045 234° Southwest 426 490 40,000  Level FlightAware ADS-B
Sat 12:03:27 AM 38.2704 -83.2053 234° Southwest 426 490 40,000  Level FlightAware ADS-B
Sat 12:03:57 AM 38.2366 -83.2618 233° Southwest 426 490 40,000  Level FlightAware ADS-B
Sat 12:04:40 AM 38.1881 -83.3464 234° Southwest 428 493 40,000  Level FlightAware ADS-B
Sat 12:05:11 AM 38.1514 -83.4090 233° Southwest 428 493 40,000  Level FlightAware ADS-B
Sat 12:05:48 AM 38.1039 -83.4897 233° Southwest 430 495 40,000  Level FlightAware ADS-B
Sat 12:11:20 AM 37.7093 -84.1563 233° Southwest 432 497 40,000  Level FlightAware ADS-B
Sat 12:12:23 AM 37.6347 -84.2792 233° Southwest 433 498 40,000  Level FlightAware ADS-B
Sat 12:13:22 AM 37.5610 -84.4017 233° Southwest 432 497 40,000  Level FlightAware ADS-B
Sat 12:14:23 AM 37.4881 -84.5237 233° Southwest 431 496 40,000  Level FlightAware ADS-B
Sat 12:15:12 AM 37.4276 -84.6234 233° Southwest 430 495 40,000  Level FlightAware ADS-B
Sat 12:16:16 AM 37.3681 -84.7208 232° Southwest 430 495 40,000  Level FlightAware ADS-B
Sat 12:17:06 AM 37.2894 -84.8497 233° Southwest 429 494 40,000  Level FlightAware ADS-B (EPWR / WRO)
Sat 12:18:22 AM 37.1978 -84.9996 233° Southwest 429 494 40,000  Level FlightAware ADS-B
Sat 12:19:11 AM 37.1391 -85.0939 232° Southwest 428 493 40,000  Level FlightAware ADS-B (EPWR / WRO)
Sat 12:19:42 AM 37.1013 -85.1549 232° Southwest 429 494 40,000  Level FlightAware ADS-B (EPWR / WRO)
Sat 12:20:23 AM 37.0513 -85.2374 233° Southwest 429 494 40,000  Level FlightAware ADS-B
Sat 12:20:56 AM 37.0119 -85.3004 232° Southwest 430 495 40,000  Level FlightAware ADS-B (EPWR / WRO)
Sat 12:21:42 AM 36.9608 -85.3830 232° Southwest 430 495 40,000  Level FlightAware ADS-B (EPWR / WRO)
Sat 12:22:22 AM 36.9125 -85.4613 232° Southwest 430 495 40,000  Level FlightAware ADS-B
Sat 12:22:57 AM 36.8647 -85.5377 232° Southwest 431 496 40,000  Level FlightAware ADS-B (EPWR / WRO)
Sat 12:24:23 AM 36.7587 -85.7065 232° Southwest 433 498 40,000  Level FlightAware ADS-B
Sat 12:25:22 AM 36.6858 -85.8222 232° Southwest 433 498 40,000  Level FlightAware ADS-B
Sat 12:26:20 AM 36.6132 -85.9381 232° Southwest 435 501 40,000  Level FlightAware ADS-B
Sat 12:27:12 AM 36.5561 -86.0281 232° Southwest 434 499 40,000  Level Indianapolis Center
Sat 12:28:12 AM 36.4797 -86.1458 231° Southwest 434 499 40,000  Level Indianapolis Center
Sat 12:29:13 AM 36.4047 -86.2656 232° Southwest 433 498 40,000  Level Indianapolis Center
Sat 12:30:13 AM 36.3289 -86.3842 232° Southwest 434 499 40,000  Level Indianapolis Center
Sat 12:31:14 AM 36.2525 -86.5039 232° Southwest 435 501 40,000  Level Indianapolis Center
Sat 12:32:15 AM 36.1750 -86.6244 231° Southwest 437 503 40,000  Level Indianapolis Center
Sat 12:33:15 AM 36.1142 -86.7572 240° Southwest 439 505 40,000  Level Indianapolis Center
Sat 12:34:16 AM 36.0708 -86.8967 249° West 428 493 40,000  Level Indianapolis Center
Sat 12:35:16 AM 36.0339 -87.0119 248° West 427 491 40,000  Level Indianapolis Center
Sat 12:36:17 AM 35.9889 -87.1506 248° West 428 493 40,000 -403 Level Indianapolis Center
Sat 12:37:45 AM 35.9217 -87.3586 248° West 426 490 39,000 -765 Descending Memphis Center
Sat 12:38:46 AM 35.8775 -87.4939 248° West 422 486 38,100 -793 Descending Memphis Center
Sat 12:39:46 AM 35.8344 -87.6267 248° West 418 481 37,400 -942 Descending Memphis Center
Sat 12:40:47 AM 35.7908 -87.7581 248° West 412 474 36,200 -1,289 Descending Memphis Center
Sat 12:41:47 AM 35.7464 -87.8969 249° West 425 489 34,800 -2,182 Descending Memphis Center
Sat 12:42:48 AM 35.7003 -88.0342 248° West 429 494 31,800 -2,557 Descending Memphis Center
Sat 12:43:49 AM 35.6589 -88.1567 247° West 428 493 29,600 -2,331 Descending Memphis Center
Sat 12:44:49 AM 35.6153 -88.2864 248° West 421 484 27,100 -2,727 Descending Memphis Center
Sat 12:45:50 AM 35.5481 -88.4233 239° Southwest 406 467 24,100 -2,705 Descending Memphis Center
Sat 12:46:51 AM 35.4681 -88.5233 226° Southwest 408 470 21,600 -2,331 Descending Memphis Center
Sat 12:47:51 AM 35.3956 -88.6142 226° Southwest 396 456 19,400 -2,231 Descending Memphis Center
Sat 12:48:52 AM 35.3233 -88.7039 225° Southwest 375 432 17,100 -2,182 Descending Memphis Center
Sat 12:49:52 AM 35.2528 -88.7933 226° Southwest 366 421 15,000 -2,132 Descending Memphis Center
Sat 12:50:53 AM 35.1831 -88.8792 225° Southwest 357 411 12,800 -2,083 Descending Memphis Center
Sat 12:51:53 AM 35.1161 -88.9650 226° Southwest 347 399 10,800 -1,339 Descending Memphis Center
Sat 12:52:54 AM 35.0522 -89.0447 226° Southwest 332 382 10,100 -738 Descending Memphis Center
Sat 12:53:55 AM 35.0344 -89.1267 255° West 267 307 9,300 -942 Descending Memphis Center
Sat 12:54:55 AM 35.0367 -89.2111 272° West 248 285 8,200 -843 Descending Memphis Center
Sat 12:55:56 AM 35.0375 -89.2947 271° West 247 284 7,600 -793 Descending Memphis Center
Sat 12:56:56 AM 35.0394 -89.3650 272° West 218 251 6,600 -992 Descending Memphis Center
Sat 12:57:57 AM 35.0408 -89.4344 271° West 207 238 5,600 -1,041 Descending Memphis Center
Sat 12:58:57 AM 35.0414 -89.5072 271° West 210 242 4,500 -893 Descending Memphis Center
Sat 12:59:58 AM 35.0431 -89.5803 272° West 214 246 3,800 -793 Descending Memphis Center
Sat 01:00:58 AM 35.0461 -89.6531 273° West 214 246 2,900 -446 Descending Memphis Center
Sat 01:01:59 AM 35.0506 -89.7231 274° West 211 243 2,900 50 Level Memphis Center
Sat 01:02:59 AM 35.0525 -89.7856 272° West 193 222 3,000 -298 Climbing Memphis Center
Sat 01:04:00 AM 35.0547 -89.8381 273° West 166 191 2,300 -694 Descending Memphis Center
Sat 01:05:00 AM 35.0561 -89.8789 272° West 137 158 1,600 -653 Descending Memphis Center
Sat 01:05:41 AM 35.0500 -89.9000 251° West 112 129 1,200 -653 Descending KMEM
Sat 01:06:41 AM 35.0667 -89.9500 292° West 126 145 500 -700 Descending KMEM
Sat 01:09:00 AM 35.0333 -89.9667 270° West  Level FlightAware Approximate

Login

Don't have an account? Register now (free) for customized features, flight alerts, and more!